sensor_id;sensor_type;location;lat;lon;timestamp;P1;durP1;ratioP1;P2;durP2;ratioP2
76752;SDS011;65687;51.308;16.916;2024-01-10T00:03:31;64.90;;;30.60;;
76752;SDS011;65687;51.308;16.916;2024-01-10T00:08:33;65.80;;;29.50;;
76752;SDS011;65687;51.308;16.916;2024-01-10T00:13:35;69.80;;;30.60;;
76752;SDS011;65687;51.308;16.916;2024-01-10T00:18:36;70.50;;;32.30;;
76752;SDS011;65687;51.308;16.916;2024-01-10T00:23:38;72.10;;;34.70;;
76752;SDS011;65687;51.308;16.916;2024-01-10T00:28:40;74.30;;;34.90;;
76752;SDS011;65687;51.308;16.916;2024-01-10T00:33:42;72.20;;;32.90;;
76752;SDS011;65687;51.308;16.916;2024-01-10T00:38:43;71.30;;;29.80;;
76752;SDS011;65687;51.308;16.916;2024-01-10T00:43:45;56.60;;;28.40;;
76752;SDS011;65687;51.308;16.916;2024-01-10T00:48:47;55.00;;;28.90;;
76752;SDS011;65687;51.308;16.916;2024-01-10T00:53:48;45.70;;;23.40;;
76752;SDS011;65687;51.308;16.916;2024-01-10T00:58:50;50.70;;;24.60;;
76752;SDS011;65687;51.308;16.916;2024-01-10T01:03:51;45.70;;;22.10;;
76752;SDS011;65687;51.308;16.916;2024-01-10T01:08:53;45.50;;;18.40;;
76752;SDS011;65687;51.308;16.916;2024-01-10T01:13:55;54.00;;;21.70;;
76752;SDS011;65687;51.308;16.916;2024-01-10T01:18:57;46.60;;;22.30;;
76752;SDS011;65687;51.308;16.916;2024-01-10T01:23:58;54.50;;;22.60;;
76752;SDS011;65687;51.308;16.916;2024-01-10T01:29:00;54.00;;;23.30;;
76752;SDS011;65687;51.308;16.916;2024-01-10T01:34:02;52.20;;;26.20;;
76752;SDS011;65687;51.308;16.916;2024-01-10T01:39:03;51.40;;;22.00;;
76752;SDS011;65687;51.308;16.916;2024-01-10T01:44:05;52.10;;;23.70;;
76752;SDS011;65687;51.308;16.916;2024-01-10T01:49:07;48.60;;;24.60;;
76752;SDS011;65687;51.308;16.916;2024-01-10T01:54:11;44.80;;;24.40;;
76752;SDS011;65687;51.308;16.916;2024-01-10T01:59:13;51.50;;;24.90;;
76752;SDS011;65687;51.308;16.916;2024-01-10T02:04:15;44.90;;;20.70;;
76752;SDS011;65687;51.308;16.916;2024-01-10T02:09:17;58.70;;;24.30;;
76752;SDS011;65687;51.308;16.916;2024-01-10T02:14:19;49.90;;;22.60;;
76752;SDS011;65687;51.308;16.916;2024-01-10T02:19:21;57.60;;;25.90;;
76752;SDS011;65687;51.308;16.916;2024-01-10T02:24:24;66.90;;;27.80;;
76752;SDS011;65687;51.308;16.916;2024-01-10T02:29:26;54.80;;;27.20;;
76752;SDS011;65687;51.308;16.916;2024-01-10T02:34:29;51.30;;;27.70;;
76752;SDS011;65687;51.308;16.916;2024-01-10T02:39:31;64.80;;;28.80;;
76752;SDS011;65687;51.308;16.916;2024-01-10T02:44:32;64.90;;;28.20;;
76752;SDS011;65687;51.308;16.916;2024-01-10T02:49:34;58.50;;;30.00;;
76752;SDS011;65687;51.308;16.916;2024-01-10T02:54:36;53.20;;;26.20;;
76752;SDS011;65687;51.308;16.916;2024-01-10T02:59:37;44.70;;;26.10;;
76752;SDS011;65687;51.308;16.916;2024-01-10T03:04:39;53.70;;;23.60;;
76752;SDS011;65687;51.308;16.916;2024-01-10T03:09:42;59.00;;;26.60;;
76752;SDS011;65687;51.308;16.916;2024-01-10T03:14:44;56.60;;;25.90;;
76752;SDS011;65687;51.308;16.916;2024-01-10T03:19:46;43.70;;;22.30;;
76752;SDS011;65687;51.308;16.916;2024-01-10T03:24:48;55.80;;;23.70;;
76752;SDS011;65687;51.308;16.916;2024-01-10T03:29:49;53.20;;;25.50;;
76752;SDS011;65687;51.308;16.916;2024-01-10T03:34:51;51.40;;;25.90;;
76752;SDS011;65687;51.308;16.916;2024-01-10T03:39:53;59.90;;;26.20;;
76752;SDS011;65687;51.308;16.916;2024-01-10T03:44:55;48.90;;;25.10;;
76752;SDS011;65687;51.308;16.916;2024-01-10T03:49:56;52.80;;;25.40;;
76752;SDS011;65687;51.308;16.916;2024-01-10T03:54:58;56.50;;;26.30;;
76752;SDS011;65687;51.308;16.916;2024-01-10T04:00:00;44.60;;;22.10;;
76752;SDS011;65687;51.308;16.916;2024-01-10T04:05:02;57.20;;;27.10;;
76752;SDS011;65687;51.308;16.916;2024-01-10T04:10:04;49.70;;;23.60;;
76752;SDS011;65687;51.308;16.916;2024-01-10T04:15:09;49.70;;;22.10;;
76752;SDS011;65687;51.308;16.916;2024-01-10T04:20:11;65.70;;;26.90;;
76752;SDS011;65687;51.308;16.916;2024-01-10T04:25:13;56.30;;;25.30;;
76752;SDS011;65687;51.308;16.916;2024-01-10T04:30:14;56.10;;;27.20;;
76752;SDS011;65687;51.308;16.916;2024-01-10T04:35:16;51.40;;;23.40;;
76752;SDS011;65687;51.308;16.916;2024-01-10T04:40:17;53.60;;;27.60;;
76752;SDS011;65687;51.308;16.916;2024-01-10T04:45:19;55.40;;;24.80;;
76752;SDS011;65687;51.308;16.916;2024-01-10T04:50:21;59.30;;;26.50;;
76752;SDS011;65687;51.308;16.916;2024-01-10T04:55:22;54.60;;;25.70;;
76752;SDS011;65687;51.308;16.916;2024-01-10T05:00:24;59.30;;;26.00;;
76752;SDS011;65687;51.308;16.916;2024-01-10T05:05:26;64.80;;;29.00;;
76752;SDS011;65687;51.308;16.916;2024-01-10T05:10:27;53.30;;;26.10;;
76752;SDS011;65687;51.308;16.916;2024-01-10T05:15:29;42.90;;;22.90;;
76752;SDS011;65687;51.308;16.916;2024-01-10T05:20:31;54.10;;;22.80;;
76752;SDS011;65687;51.308;16.916;2024-01-10T05:25:33;51.30;;;25.90;;
76752;SDS011;65687;51.308;16.916;2024-01-10T05:30:35;52.70;;;26.00;;
76752;SDS011;65687;51.308;16.916;2024-01-10T05:35:38;55.70;;;28.90;;
76752;SDS011;65687;51.308;16.916;2024-01-10T05:40:40;60.80;;;29.00;;
76752;SDS011;65687;51.308;16.916;2024-01-10T05:45:41;86.80;;;31.50;;
76752;SDS011;65687;51.308;16.916;2024-01-10T05:50:43;70.50;;;30.40;;
76752;SDS011;65687;51.308;16.916;2024-01-10T05:55:45;67.10;;;28.80;;
76752;SDS011;65687;51.308;16.916;2024-01-10T06:00:46;66.00;;;32.20;;
76752;SDS011;65687;51.308;16.916;2024-01-10T06:05:48;64.50;;;32.50;;
76752;SDS011;65687;51.308;16.916;2024-01-10T06:10:50;61.50;;;28.20;;
76752;SDS011;65687;51.308;16.916;2024-01-10T06:15:52;58.80;;;29.40;;
76752;SDS011;65687;51.308;16.916;2024-01-10T06:20:55;60.80;;;29.40;;
76752;SDS011;65687;51.308;16.916;2024-01-10T06:25:59;54.40;;;24.80;;
76752;SDS011;65687;51.308;16.916;2024-01-10T06:31:01;53.10;;;23.70;;
76752;SDS011;65687;51.308;16.916;2024-01-10T06:36:04;54.80;;;22.60;;
76752;SDS011;65687;51.308;16.916;2024-01-10T06:41:09;56.00;;;23.80;;
76752;SDS011;65687;51.308;16.916;2024-01-10T06:46:11;51.30;;;26.30;;
76752;SDS011;65687;51.308;16.916;2024-01-10T06:51:13;61.50;;;26.00;;
76752;SDS011;65687;51.308;16.916;2024-01-10T06:56:18;53.90;;;27.00;;
76752;SDS011;65687;51.308;16.916;2024-01-10T07:01:20;53.80;;;26.00;;
76752;SDS011;65687;51.308;16.916;2024-01-10T07:06:23;67.60;;;32.40;;
76752;SDS011;65687;51.308;16.916;2024-01-10T07:11:25;53.60;;;31.50;;
76752;SDS011;65687;51.308;16.916;2024-01-10T07:16:29;69.30;;;34.60;;
76752;SDS011;65687;51.308;16.916;2024-01-10T07:21:31;76.60;;;36.00;;
76752;SDS011;65687;51.308;16.916;2024-01-10T07:26:33;62.20;;;28.00;;
76752;SDS011;65687;51.308;16.916;2024-01-10T07:31:35;48.80;;;24.60;;
76752;SDS011;65687;51.308;16.916;2024-01-10T07:36:41;75.40;;;33.20;;
76752;SDS011;65687;51.308;16.916;2024-01-10T07:41:44;69.20;;;31.00;;
76752;SDS011;65687;51.308;16.916;2024-01-10T07:46:48;78.80;;;33.50;;
76752;SDS011;65687;51.308;16.916;2024-01-10T07:51:52;65.00;;;29.00;;
76752;SDS011;65687;51.308;16.916;2024-01-10T07:56:54;68.60;;;31.50;;
76752;SDS011;65687;51.308;16.916;2024-01-10T08:01:56;52.40;;;25.10;;
76752;SDS011;65687;51.308;16.916;2024-01-10T08:06:59;58.10;;;25.60;;
76752;SDS011;65687;51.308;16.916;2024-01-10T08:12:02;57.90;;;30.30;;
76752;SDS011;65687;51.308;16.916;2024-01-10T08:17:05;62.10;;;33.00;;
76752;SDS011;65687;51.308;16.916;2024-01-10T08:22:08;95.20;;;41.00;;
76752;SDS011;65687;51.308;16.916;2024-01-10T08:27:10;65.60;;;33.80;;
76752;SDS011;65687;51.308;16.916;2024-01-10T08:32:11;93.90;;;40.50;;
76752;SDS011;65687;51.308;16.916;2024-01-10T08:37:13;83.80;;;41.60;;
76752;SDS011;65687;51.308;16.916;2024-01-10T08:42:16;64.20;;;34.00;;
76752;SDS011;65687;51.308;16.916;2024-01-10T08:47:17;66.80;;;32.20;;
76752;SDS011;65687;51.308;16.916;2024-01-10T08:52:19;36.60;;;20.30;;
76752;SDS011;65687;51.308;16.916;2024-01-10T08:57:21;79.40;;;36.00;;
76752;SDS011;65687;51.308;16.916;2024-01-10T09:02:22;64.10;;;27.70;;
76752;SDS011;65687;51.308;16.916;2024-01-10T09:07:27;76.00;;;36.00;;
76752;SDS011;65687;51.308;16.916;2024-01-10T09:12:32;80.40;;;34.70;;
76752;SDS011;65687;51.308;16.916;2024-01-10T09:17:34;35.60;;;16.50;;
76752;SDS011;65687;51.308;16.916;2024-01-10T09:22:36;78.00;;;35.50;;
76752;SDS011;65687;51.308;16.916;2024-01-10T09:27:39;65.30;;;30.70;;
76752;SDS011;65687;51.308;16.916;2024-01-10T09:32:48;89.80;;;40.50;;
76752;SDS011;65687;51.308;16.916;2024-01-10T09:37:50;74.60;;;33.60;;
76752;SDS011;65687;51.308;16.916;2024-01-10T09:42:51;76.30;;;34.00;;
76752;SDS011;65687;51.308;16.916;2024-01-10T09:47:55;79.20;;;35.20;;
76752;SDS011;65687;51.308;16.916;2024-01-10T09:53:05;59.90;;;27.60;;
76752;SDS011;65687;51.308;16.916;2024-01-10T09:58:10;53.60;;;27.20;;
76752;SDS011;65687;51.308;16.916;2024-01-10T10:03:12;52.60;;;26.90;;
76752;SDS011;65687;51.308;16.916;2024-01-10T10:08:15;73.80;;;33.80;;
76752;SDS011;65687;51.308;16.916;2024-01-10T10:13:27;80.30;;;34.20;;
76752;SDS011;65687;51.308;16.916;2024-01-10T10:18:30;68.30;;;34.50;;
76752;SDS011;65687;51.308;16.916;2024-01-10T10:23:33;83.10;;;37.90;;
76752;SDS011;65687;51.308;16.916;2024-01-10T10:28:35;82.10;;;36.60;;
76752;SDS011;65687;51.308;16.916;2024-01-10T10:33:36;89.40;;;39.80;;
76752;SDS011;65687;51.308;16.916;2024-01-10T10:38:39;81.90;;;33.50;;
76752;SDS011;65687;51.308;16.916;2024-01-10T10:43:41;84.30;;;39.90;;
76752;SDS011;65687;51.308;16.916;2024-01-10T10:48:43;79.00;;;36.40;;
76752;SDS011;65687;51.308;16.916;2024-01-10T10:58:49;71.60;;;33.00;;
76752;SDS011;65687;51.308;16.916;2024-01-10T11:03:52;61.00;;;26.60;;
76752;SDS011;65687;51.308;16.916;2024-01-10T11:09:00;78.50;;;31.70;;
76752;SDS011;65687;51.308;16.916;2024-01-10T11:24:43;82.30;;;34.60;;
76752;SDS011;65687;51.308;16.916;2024-01-10T11:29:46;73.40;;;32.00;;
76752;SDS011;65687;51.308;16.916;2024-01-10T11:39:59;81.00;;;34.40;;
76752;SDS011;65687;51.308;16.916;2024-01-10T11:45:02;75.40;;;36.80;;
76752;SDS011;65687;51.308;16.916;2024-01-10T11:55:08;88.00;;;41.00;;
76752;SDS011;65687;51.308;16.916;2024-01-10T12:00:10;89.60;;;39.20;;
76752;SDS011;65687;51.308;16.916;2024-01-10T12:05:12;85.60;;;37.10;;
76752;SDS011;65687;51.308;16.916;2024-01-10T12:10:15;87.00;;;38.40;;
76752;SDS011;65687;51.308;16.916;2024-01-10T12:15:17;86.80;;;38.70;;
76752;SDS011;65687;51.308;16.916;2024-01-10T12:20:19;92.70;;;40.10;;
76752;SDS011;65687;51.308;16.916;2024-01-10T12:25:21;82.80;;;35.40;;
76752;SDS011;65687;51.308;16.916;2024-01-10T12:30:22;93.60;;;43.70;;
76752;SDS011;65687;51.308;16.916;2024-01-10T12:35:24;95.90;;;39.30;;
76752;SDS011;65687;51.308;16.916;2024-01-10T12:40:26;115.10;;;49.40;;
76752;SDS011;65687;51.308;16.916;2024-01-10T12:45:28;98.00;;;42.90;;
76752;SDS011;65687;51.308;16.916;2024-01-10T12:50:30;93.50;;;41.60;;
76752;SDS011;65687;51.308;16.916;2024-01-10T12:55:31;93.40;;;39.20;;
76752;SDS011;65687;51.308;16.916;2024-01-10T13:00:34;83.50;;;38.10;;
76752;SDS011;65687;51.308;16.916;2024-01-10T13:05:36;87.20;;;38.10;;
76752;SDS011;65687;51.308;16.916;2024-01-10T13:10:38;87.10;;;38.50;;
76752;SDS011;65687;51.308;16.916;2024-01-10T13:15:40;100.00;;;41.70;;
76752;SDS011;65687;51.308;16.916;2024-01-10T13:20:44;89.80;;;38.80;;
76752;SDS011;65687;51.308;16.916;2024-01-10T13:25:46;94.30;;;39.80;;
76752;SDS011;65687;51.308;16.916;2024-01-10T13:30:48;87.80;;;40.80;;
76752;SDS011;65687;51.308;16.916;2024-01-10T13:35:52;85.10;;;39.60;;
76752;SDS011;65687;51.308;16.916;2024-01-10T13:40:54;89.90;;;42.10;;
76752;SDS011;65687;51.308;16.916;2024-01-10T13:45:56;90.30;;;38.50;;
76752;SDS011;65687;51.308;16.916;2024-01-10T13:50:57;85.00;;;37.20;;
76752;SDS011;65687;51.308;16.916;2024-01-10T13:55:59;87.60;;;40.80;;
76752;SDS011;65687;51.308;16.916;2024-01-10T14:01:01;89.90;;;40.60;;
76752;SDS011;65687;51.308;16.916;2024-01-10T14:06:02;83.80;;;39.30;;
76752;SDS011;65687;51.308;16.916;2024-01-10T14:11:05;106.70;;;42.70;;
76752;SDS011;65687;51.308;16.916;2024-01-10T14:16:06;91.60;;;42.30;;
76752;SDS011;65687;51.308;16.916;2024-01-10T14:21:08;83.70;;;38.20;;
76752;SDS011;65687;51.308;16.916;2024-01-10T14:26:10;97.30;;;42.40;;
76752;SDS011;65687;51.308;16.916;2024-01-10T14:31:12;101.20;;;43.10;;
76752;SDS011;65687;51.308;16.916;2024-01-10T14:36:15;94.40;;;39.90;;
76752;SDS011;65687;51.308;16.916;2024-01-10T14:41:16;84.30;;;41.70;;
76752;SDS011;65687;51.308;16.916;2024-01-10T14:46:18;91.30;;;40.50;;
76752;SDS011;65687;51.308;16.916;2024-01-10T14:51:20;77.40;;;34.70;;
76752;SDS011;65687;51.308;16.916;2024-01-10T14:56:21;80.70;;;34.30;;
76752;SDS011;65687;51.308;16.916;2024-01-10T15:01:24;85.70;;;36.40;;
76752;SDS011;65687;51.308;16.916;2024-01-10T15:06:26;79.00;;;35.40;;
76752;SDS011;65687;51.308;16.916;2024-01-10T15:11:28;80.40;;;33.50;;
76752;SDS011;65687;51.308;16.916;2024-01-10T15:16:30;74.10;;;32.90;;
76752;SDS011;65687;51.308;16.916;2024-01-10T15:21:31;81.40;;;35.70;;
76752;SDS011;65687;51.308;16.916;2024-01-10T15:26:33;71.80;;;31.10;;
76752;SDS011;65687;51.308;16.916;2024-01-10T15:31:35;72.90;;;30.60;;
76752;SDS011;65687;51.308;16.916;2024-01-10T15:36:41;85.20;;;35.20;;
76752;SDS011;65687;51.308;16.916;2024-01-10T15:41:43;79.20;;;34.50;;
76752;SDS011;65687;51.308;16.916;2024-01-10T15:46:44;82.10;;;34.50;;
76752;SDS011;65687;51.308;16.916;2024-01-10T15:51:46;77.90;;;33.70;;
76752;SDS011;65687;51.308;16.916;2024-01-10T15:56:50;85.70;;;37.60;;
76752;SDS011;65687;51.308;16.916;2024-01-10T16:01:52;88.60;;;39.50;;
76752;SDS011;65687;51.308;16.916;2024-01-10T16:06:55;80.10;;;31.40;;
76752;SDS011;65687;51.308;16.916;2024-01-10T16:11:57;94.40;;;38.20;;
76752;SDS011;65687;51.308;16.916;2024-01-10T16:16:59;95.00;;;41.40;;
76752;SDS011;65687;51.308;16.916;2024-01-10T16:22:01;96.40;;;43.10;;
76752;SDS011;65687;51.308;16.916;2024-01-10T16:27:02;104.90;;;43.20;;
76752;SDS011;65687;51.308;16.916;2024-01-10T16:32:04;106.20;;;45.10;;
76752;SDS011;65687;51.308;16.916;2024-01-10T16:37:07;104.40;;;44.00;;
76752;SDS011;65687;51.308;16.916;2024-01-10T16:42:09;103.70;;;44.70;;
76752;SDS011;65687;51.308;16.916;2024-01-10T16:47:11;108.30;;;45.80;;
76752;SDS011;65687;51.308;16.916;2024-01-10T16:52:13;108.50;;;47.40;;
76752;SDS011;65687;51.308;16.916;2024-01-10T16:57:15;119.00;;;51.90;;
76752;SDS011;65687;51.308;16.916;2024-01-10T17:02:17;135.90;;;56.50;;
76752;SDS011;65687;51.308;16.916;2024-01-10T17:07:19;136.20;;;56.10;;
76752;SDS011;65687;51.308;16.916;2024-01-10T17:12:20;130.60;;;54.60;;
76752;SDS011;65687;51.308;16.916;2024-01-10T17:17:23;134.90;;;57.80;;
76752;SDS011;65687;51.308;16.916;2024-01-10T17:22:25;145.10;;;63.20;;
76752;SDS011;65687;51.308;16.916;2024-01-10T17:27:27;205.60;;;77.80;;
76752;SDS011;65687;51.308;16.916;2024-01-10T17:32:29;182.20;;;72.00;;
76752;SDS011;65687;51.308;16.916;2024-01-10T17:37:31;168.80;;;68.10;;
76752;SDS011;65687;51.308;16.916;2024-01-10T17:42:32;176.50;;;76.40;;
76752;SDS011;65687;51.308;16.916;2024-01-10T17:47:34;203.10;;;88.60;;
76752;SDS011;65687;51.308;16.916;2024-01-10T17:52:37;189.10;;;77.50;;
76752;SDS011;65687;51.308;16.916;2024-01-10T17:57:38;185.30;;;78.50;;
76752;SDS011;65687;51.308;16.916;2024-01-10T18:02:40;197.70;;;81.20;;
76752;SDS011;65687;51.308;16.916;2024-01-10T18:07:42;205.60;;;84.80;;
76752;SDS011;65687;51.308;16.916;2024-01-10T18:12:44;218.90;;;93.30;;
76752;SDS011;65687;51.308;16.916;2024-01-10T18:17:45;207.10;;;87.80;;
76752;SDS011;65687;51.308;16.916;2024-01-10T18:22:47;183.60;;;76.50;;
76752;SDS011;65687;51.308;16.916;2024-01-10T18:27:49;196.50;;;82.10;;
76752;SDS011;65687;51.308;16.916;2024-01-10T18:32:51;164.00;;;71.80;;
76752;SDS011;65687;51.308;16.916;2024-01-10T18:37:53;164.90;;;66.60;;
76752;SDS011;65687;51.308;16.916;2024-01-10T18:42:54;162.50;;;70.80;;
76752;SDS011;65687;51.308;16.916;2024-01-10T18:47:56;140.50;;;62.60;;
76752;SDS011;65687;51.308;16.916;2024-01-10T18:52:58;132.70;;;60.50;;
76752;SDS011;65687;51.308;16.916;2024-01-10T18:58:00;135.10;;;52.80;;
76752;SDS011;65687;51.308;16.916;2024-01-10T19:03:02;133.80;;;56.50;;
76752;SDS011;65687;51.308;16.916;2024-01-10T19:08:05;146.30;;;58.10;;
76752;SDS011;65687;51.308;16.916;2024-01-10T19:13:06;125.00;;;53.80;;
76752;SDS011;65687;51.308;16.916;2024-01-10T19:18:08;125.10;;;51.80;;
76752;SDS011;65687;51.308;16.916;2024-01-10T19:23:10;125.70;;;56.70;;
76752;SDS011;65687;51.308;16.916;2024-01-10T19:28:12;127.80;;;55.50;;
76752;SDS011;65687;51.308;16.916;2024-01-10T19:33:14;121.90;;;54.40;;
76752;SDS011;65687;51.308;16.916;2024-01-10T19:38:16;164.70;;;66.90;;
76752;SDS011;65687;51.308;16.916;2024-01-10T19:43:21;167.20;;;65.80;;
76752;SDS011;65687;51.308;16.916;2024-01-10T19:48:24;181.00;;;80.50;;
76752;SDS011;65687;51.308;16.916;2024-01-10T19:53:25;244.30;;;90.70;;
76752;SDS011;65687;51.308;16.916;2024-01-10T19:58:27;433.90;;;150.80;;
76752;SDS011;65687;51.308;16.916;2024-01-10T20:03:29;274.60;;;108.50;;
76752;SDS011;65687;51.308;16.916;2024-01-10T20:08:31;329.30;;;131.70;;
76752;SDS011;65687;51.308;16.916;2024-01-10T20:13:33;297.00;;;120.50;;
76752;SDS011;65687;51.308;16.916;2024-01-10T20:18:35;294.50;;;115.60;;
76752;SDS011;65687;51.308;16.916;2024-01-10T20:23:37;296.60;;;126.00;;
76752;SDS011;65687;51.308;16.916;2024-01-10T20:28:41;273.30;;;107.00;;
76752;SDS011;65687;51.308;16.916;2024-01-10T20:33:43;225.00;;;98.20;;
76752;SDS011;65687;51.308;16.916;2024-01-10T20:38:44;181.90;;;84.60;;
76752;SDS011;65687;51.308;16.916;2024-01-10T20:43:46;168.50;;;76.40;;
76752;SDS011;65687;51.308;16.916;2024-01-10T20:48:48;179.10;;;75.80;;
76752;SDS011;65687;51.308;16.916;2024-01-10T20:53:50;162.60;;;72.80;;
76752;SDS011;65687;51.308;16.916;2024-01-10T20:58:52;145.20;;;62.90;;
76752;SDS011;65687;51.308;16.916;2024-01-10T21:03:54;146.70;;;59.30;;
76752;SDS011;65687;51.308;16.916;2024-01-10T21:08:55;134.50;;;58.50;;
76752;SDS011;65687;51.308;16.916;2024-01-10T21:13:58;131.10;;;59.60;;
76752;SDS011;65687;51.308;16.916;2024-01-10T21:19:00;130.00;;;53.00;;
76752;SDS011;65687;51.308;16.916;2024-01-10T21:24:01;133.00;;;58.10;;
76752;SDS011;65687;51.308;16.916;2024-01-10T21:29:03;127.20;;;57.80;;
76752;SDS011;65687;51.308;16.916;2024-01-10T21:34:05;122.50;;;53.60;;
76752;SDS011;65687;51.308;16.916;2024-01-10T21:39:06;134.70;;;58.90;;
76752;SDS011;65687;51.308;16.916;2024-01-10T21:44:08;138.30;;;53.60;;
76752;SDS011;65687;51.308;16.916;2024-01-10T21:49:10;125.40;;;56.00;;
76752;SDS011;65687;51.308;16.916;2024-01-10T21:54:12;118.70;;;54.20;;
76752;SDS011;65687;51.308;16.916;2024-01-10T21:59:14;125.00;;;52.10;;
76752;SDS011;65687;51.308;16.916;2024-01-10T22:04:16;128.60;;;54.50;;
76752;SDS011;65687;51.308;16.916;2024-01-10T22:09:18;116.60;;;51.40;;
76752;SDS011;65687;51.308;16.916;2024-01-10T22:14:20;125.90;;;57.00;;
76752;SDS011;65687;51.308;16.916;2024-01-10T22:19:22;118.50;;;53.80;;
76752;SDS011;65687;51.308;16.916;2024-01-10T22:24:24;154.60;;;66.10;;
76752;SDS011;65687;51.308;16.916;2024-01-10T22:29:26;142.70;;;61.80;;
76752;SDS011;65687;51.308;16.916;2024-01-10T22:34:29;163.80;;;66.30;;
76752;SDS011;65687;51.308;16.916;2024-01-10T22:39:30;140.00;;;65.00;;
76752;SDS011;65687;51.308;16.916;2024-01-10T22:44:32;146.50;;;62.80;;
76752;SDS011;65687;51.308;16.916;2024-01-10T22:49:33;176.10;;;74.40;;
76752;SDS011;65687;51.308;16.916;2024-01-10T22:54:35;156.20;;;65.90;;
76752;SDS011;65687;51.308;16.916;2024-01-10T22:59:37;144.20;;;64.00;;
76752;SDS011;65687;51.308;16.916;2024-01-10T23:04:39;124.60;;;54.60;;
76752;SDS011;65687;51.308;16.916;2024-01-10T23:09:41;158.70;;;71.30;;
76752;SDS011;65687;51.308;16.916;2024-01-10T23:14:42;155.00;;;60.20;;
76752;SDS011;65687;51.308;16.916;2024-01-10T23:19:44;120.60;;;51.50;;
76752;SDS011;65687;51.308;16.916;2024-01-10T23:24:45;145.20;;;57.90;;
76752;SDS011;65687;51.308;16.916;2024-01-10T23:29:47;119.40;;;48.40;;
76752;SDS011;65687;51.308;16.916;2024-01-10T23:34:49;115.60;;;51.20;;
76752;SDS011;65687;51.308;16.916;2024-01-10T23:39:50;98.80;;;46.40;;
76752;SDS011;65687;51.308;16.916;2024-01-10T23:44:52;104.80;;;48.50;;
76752;SDS011;65687;51.308;16.916;2024-01-10T23:49:53;125.20;;;58.50;;
76752;SDS011;65687;51.308;16.916;2024-01-10T23:54:55;135.90;;;60.60;;
76752;SDS011;65687;51.308;16.916;2024-01-10T23:59:57;145.70;;;61.70;;
